createdAt,value
2018-04-11T00:00:47.228Z,67.59
2018-04-11T00:03:14.689Z,67.67
2018-04-11T00:05:42.148Z,67.78
2018-04-11T00:08:09.680Z,67.94
2018-04-11T00:10:37.153Z,68.20
2018-04-11T00:13:04.712Z,68.49
2018-04-11T00:15:32.204Z,68.74
2018-04-11T00:17:59.678Z,68.95
2018-04-11T00:20:27.137Z,69.16
2018-04-11T00:22:54.617Z,69.34
2018-04-11T00:25:22.163Z,69.54
2018-04-11T00:27:49.627Z,69.67
2018-04-11T00:30:17.122Z,69.77
2018-04-11T00:32:44.595Z,69.92
2018-04-11T00:35:12.100Z,70.19
2018-04-11T00:37:39.567Z,70.35
2018-04-11T00:40:07.034Z,70.61
2018-04-11T00:42:34.545Z,70.80
2018-04-11T00:45:02.073Z,71.01
2018-04-11T00:47:29.555Z,71.10
2018-04-11T00:49:57.050Z,71.12
2018-04-11T00:52:24.524Z,71.17
2018-04-11T00:54:52.012Z,71.18
2018-04-11T00:57:19.508Z,71.04
2018-04-11T00:59:47.011Z,70.95
2018-04-11T01:02:14.465Z,70.91
2018-04-11T01:04:41.959Z,70.87
2018-04-11T01:07:09.430Z,70.87
2018-04-11T01:09:36.945Z,70.89
2018-04-11T01:12:04.551Z,70.86
2018-04-11T01:14:32.016Z,70.93
2018-04-11T01:16:59.502Z,70.98
2018-04-11T01:19:27.097Z,71.17
2018-04-11T01:21:54.560Z,71.26
2018-04-11T01:24:22.201Z,71.43
2018-04-11T01:26:49.673Z,71.58
2018-04-11T01:29:17.140Z,71.70
2018-04-11T01:31:44.711Z,71.78
2018-04-11T01:34:12.169Z,71.86
2018-04-11T01:36:39.685Z,71.92
2018-04-11T01:39:07.296Z,71.99
2018-04-11T01:41:34.773Z,72.05
2018-04-11T01:44:02.250Z,72.08
2018-04-11T01:46:29.729Z,72.20
2018-04-11T01:48:57.188Z,72.32
2018-04-11T01:51:24.688Z,72.47
2018-04-11T01:53:52.202Z,72.69
2018-04-11T01:56:19.698Z,72.77
2018-04-11T01:58:47.188Z,72.83
2018-04-11T02:01:14.672Z,72.91
2018-04-11T02:03:42.128Z,72.86
2018-04-11T02:06:09.603Z,72.87
2018-04-11T02:08:37.093Z,73.01
2018-04-11T02:11:04.558Z,73.11
2018-04-11T02:13:32.030Z,73.16
2018-04-11T02:15:59.524Z,73.27
2018-04-11T02:18:26.991Z,73.43
2018-04-11T02:20:54.465Z,73.41
2018-04-11T02:23:21.955Z,73.50
2018-04-11T02:25:49.429Z,73.57
2018-04-11T02:28:16.901Z,73.58
2018-04-11T02:30:44.405Z,73.79
2018-04-11T02:33:11.881Z,73.92
2018-04-11T02:35:39.344Z,73.97
2018-04-11T02:38:06.832Z,74.06
2018-04-11T02:40:34.300Z,74.14
2018-04-11T02:43:01.776Z,74.24
2018-04-11T02:45:29.270Z,74.37
2018-04-11T02:47:56.733Z,74.39
2018-04-11T02:50:24.227Z,74.38
2018-04-11T02:52:51.736Z,74.59
2018-04-11T02:55:19.237Z,74.81
2018-04-11T02:57:46.706Z,74.74
2018-04-11T03:00:14.193Z,74.79
2018-04-11T03:02:41.706Z,74.88
2018-04-11T03:05:09.269Z,74.99
2018-04-11T03:07:36.746Z,75.16
2018-04-11T03:10:04.287Z,75.25
2018-04-11T03:12:31.767Z,75.53
2018-04-11T03:14:59.237Z,75.94
2018-04-11T03:17:26.727Z,76.31
2018-04-11T03:19:54.210Z,76.47
2018-04-11T03:22:21.772Z,76.58
2018-04-11T03:24:49.266Z,76.69
2018-04-11T03:27:16.747Z,76.78
2018-04-11T03:29:44.245Z,76.82
2018-04-11T03:32:11.745Z,76.88
2018-04-11T03:34:39.226Z,76.91
2018-04-11T03:37:06.695Z,77.10
2018-04-11T03:39:34.192Z,77.23
2018-04-11T03:42:01.662Z,77.35
2018-04-11T03:44:29.183Z,77.30
2018-04-11T03:46:56.677Z,77.29
2018-04-11T03:49:24.198Z,77.25
2018-04-11T03:51:51.672Z,77.12
2018-04-11T03:54:19.140Z,77.37
2018-04-11T03:56:46.677Z,77.47
2018-04-11T03:59:14.170Z,77.61
2018-04-11T04:01:41.713Z,77.51
2018-04-11T04:04:09.185Z,77.56
2018-04-11T04:06:36.681Z,77.57
2018-04-11T04:09:04.141Z,77.52
2018-04-11T04:11:31.628Z,77.35
2018-04-11T04:14:10.969Z,77.27
2018-04-11T04:16:50.452Z,77.28
2018-04-11T04:19:29.829Z,77.54
2018-04-11T04:21:57.296Z,78.37
2018-04-11T04:24:24.780Z,78.82
2018-04-11T04:26:52.360Z,78.63
2018-04-11T04:29:19.839Z,78.86
2018-04-11T04:31:47.309Z,78.83
2018-04-11T04:34:14.792Z,78.59
2018-04-11T04:36:42.280Z,78.64
2018-04-11T04:39:09.753Z,78.22
2018-04-11T04:41:37.252Z,78.29
2018-04-11T04:44:04.708Z,78.33
2018-04-11T04:46:32.177Z,77.93
2018-04-11T04:48:59.674Z,78.11
2018-04-11T04:51:27.149Z,78.11
2018-04-11T04:53:54.643Z,78.04
2018-04-11T04:56:22.128Z,77.78
2018-04-11T04:58:49.600Z,77.80
2018-04-11T05:01:17.093Z,77.74
2018-04-11T05:03:44.721Z,77.71
2018-04-11T05:06:12.212Z,77.90
2018-04-11T05:08:39.685Z,77.83
2018-04-11T05:11:07.141Z,77.66
2018-04-11T05:13:34.728Z,77.65
2018-04-11T05:16:02.190Z,77.63
2018-04-11T05:18:29.765Z,77.33
2018-04-11T05:20:57.257Z,77.31
2018-04-11T05:23:24.734Z,77.15
2018-04-11T05:25:52.212Z,77.17
2018-04-11T05:28:19.696Z,77.18
2018-04-11T05:30:47.190Z,77.22
2018-04-11T05:33:14.661Z,77.24
2018-04-11T05:35:42.148Z,77.14
2018-04-11T05:38:09.704Z,78.09
2018-04-11T05:40:37.176Z,78.86
2018-04-11T05:43:04.688Z,80.56
2018-04-11T05:45:32.276Z,81.64
2018-04-11T05:47:59.764Z,82.13
2018-04-11T05:50:27.336Z,82.17
2018-04-11T05:52:54.809Z,81.54
2018-04-11T05:55:22.361Z,81.26
2018-04-11T05:57:49.852Z,80.10
2018-04-11T06:00:17.328Z,79.50
2018-04-11T06:02:44.797Z,78.31
2018-04-11T06:05:12.307Z,77.38
2018-04-11T06:07:39.768Z,76.73
2018-04-11T06:10:07.267Z,76.49
2018-04-11T06:12:34.768Z,76.53
2018-04-11T06:15:02.242Z,76.40
2018-04-11T06:17:29.715Z,75.73
2018-04-11T06:19:57.299Z,75.80
2018-04-11T06:22:24.797Z,75.66
2018-04-11T06:24:52.266Z,75.84
2018-04-11T06:27:19.745Z,75.46
2018-04-11T06:29:47.238Z,75.37
2018-04-11T06:32:14.748Z,75.31
2018-04-11T06:34:42.242Z,75.06
2018-04-11T06:37:09.721Z,75.12
2018-04-11T06:39:37.268Z,74.81
2018-04-11T06:42:04.876Z,74.64
2018-04-11T06:44:32.356Z,74.29
2018-04-11T06:46:59.837Z,74.10
2018-04-11T06:49:27.345Z,73.56
2018-04-11T06:51:54.893Z,72.83
2018-04-11T06:54:22.360Z,72.79
2018-04-11T06:56:49.820Z,72.71
2018-04-11T06:59:17.304Z,72.95
2018-04-11T07:01:44.765Z,72.97
2018-04-11T07:04:12.220Z,72.34
2018-04-11T07:06:39.813Z,71.99
2018-04-11T07:09:07.273Z,71.83
2018-04-11T07:11:34.768Z,71.40
2018-04-11T07:14:02.251Z,71.19
2018-04-11T07:16:29.729Z,70.90
2018-04-11T07:18:57.243Z,71.20
2018-04-11T07:21:24.723Z,70.22
2018-04-11T07:23:52.204Z,69.83
2018-04-11T07:26:19.865Z,70.05
2018-04-11T07:28:47.329Z,70.22
2018-04-11T07:31:14.787Z,69.82
2018-04-11T07:33:42.361Z,69.08
2018-04-11T07:36:09.876Z,69.39
2018-04-11T07:38:37.357Z,69.07
2018-04-11T07:41:04.824Z,67.56
2018-04-11T07:43:32.304Z,67.56
2018-04-11T07:46:00.682Z,67.14
2018-04-11T07:48:28.186Z,66.60
2018-04-11T07:50:55.705Z,66.27
2018-04-11T07:53:23.190Z,65.69
2018-04-11T07:55:50.683Z,64.73
2018-04-11T07:58:18.166Z,65.38
2018-04-11T08:00:45.635Z,65.75
2018-04-11T08:03:13.131Z,65.20
2018-04-11T08:05:40.584Z,64.25
2018-04-11T08:08:08.058Z,63.44
2018-04-11T08:10:35.629Z,62.64
2018-04-11T08:13:03.104Z,63.05
2018-04-11T08:15:30.571Z,62.80
2018-04-11T08:17:58.096Z,62.23
2018-04-11T08:20:25.555Z,61.97
2018-04-11T08:22:53.078Z,62.87
2018-04-11T08:25:20.580Z,63.38
2018-04-11T08:27:48.105Z,63.26
2018-04-11T08:30:15.589Z,63.03
2018-04-11T08:32:43.053Z,63.01
2018-04-11T08:35:10.612Z,63.00
2018-04-11T08:37:38.091Z,62.72
2018-04-11T08:40:05.678Z,62.38
2018-04-11T08:42:33.234Z,62.67
2018-04-11T08:45:00.708Z,62.38
2018-04-11T08:47:28.190Z,61.99
2018-04-11T08:49:55.764Z,61.33
2018-04-11T08:52:23.230Z,61.64
2018-04-11T08:54:50.706Z,61.89
2018-04-11T08:57:18.256Z,61.30
2018-04-11T08:59:45.722Z,60.10
2018-04-11T09:02:13.213Z,59.17
2018-04-11T09:04:40.719Z,58.98
2018-04-11T09:07:08.231Z,59.65
2018-04-11T09:09:35.742Z,59.78
2018-04-11T09:12:03.216Z,58.50
2018-04-11T09:14:30.694Z,58.19
2018-04-11T09:16:58.197Z,59.69
2018-04-11T09:19:25.665Z,59.05
2018-04-11T09:21:53.237Z,57.76
2018-04-11T09:24:20.746Z,56.47
2018-04-11T09:26:48.218Z,55.82
2018-04-11T09:29:15.700Z,55.90
2018-04-11T09:31:43.189Z,57.04
2018-04-11T09:34:10.700Z,57.60
2018-04-11T09:36:38.734Z,57.88
2018-04-11T09:39:06.225Z,57.88
2018-04-11T09:41:33.688Z,57.59
2018-04-11T09:44:01.168Z,57.31
2018-04-11T09:46:28.659Z,56.92
2018-04-11T09:48:56.122Z,56.05
2018-04-11T09:51:23.753Z,55.96
2018-04-11T09:53:51.226Z,55.14
2018-04-11T09:56:18.696Z,54.81
2018-04-11T09:58:46.260Z,55.38
2018-04-11T10:01:18.771Z,55.01
2018-04-11T10:03:46.248Z,55.89
2018-04-11T10:06:13.844Z,56.00
2018-04-11T10:08:42.194Z,56.20
2018-04-11T10:11:09.661Z,54.88
2018-04-11T10:13:37.191Z,53.91
2018-04-11T10:16:04.767Z,54.92
2018-04-11T10:18:32.252Z,56.29
2018-04-11T10:20:59.744Z,56.80
2018-04-11T10:23:27.256Z,55.41
2018-04-11T10:25:54.724Z,54.40
2018-04-11T10:28:22.299Z,54.36
2018-04-11T10:30:49.756Z,54.81
2018-04-11T10:33:17.223Z,53.66
2018-04-11T10:35:44.721Z,53.46
2018-04-11T10:38:12.222Z,53.97
2018-04-11T10:40:39.741Z,53.99
2018-04-11T10:43:07.296Z,53.37
2018-04-11T10:45:34.848Z,53.62
2018-04-11T10:48:02.310Z,53.34
2018-04-11T10:50:29.777Z,52.73
2018-04-11T10:52:57.328Z,53.53
2018-04-11T10:55:24.800Z,53.62
2018-04-11T10:57:52.296Z,52.29
2018-04-11T11:00:19.774Z,51.83
2018-04-11T11:02:47.264Z,52.19
2018-04-11T11:05:14.766Z,53.84
2018-04-11T11:07:42.288Z,54.08
2018-04-11T11:10:09.747Z,53.50
2018-04-11T11:12:37.249Z,54.90
2018-04-11T11:15:04.793Z,54.93
2018-04-11T11:17:32.272Z,54.11
2018-04-11T11:20:01.598Z,52.78
2018-04-11T11:22:29.134Z,52.48
2018-04-11T11:24:56.624Z,53.16
2018-04-11T11:27:24.118Z,53.41
2018-04-11T11:29:51.592Z,54.43
2018-04-11T11:32:19.209Z,55.04
2018-04-11T11:34:46.721Z,55.36
2018-04-11T11:37:14.369Z,56.60
2018-04-11T11:39:41.881Z,58.08
2018-04-11T11:42:09.456Z,57.95
2018-04-11T11:44:36.917Z,57.36
2018-04-11T11:47:04.409Z,56.62
2018-04-11T11:49:31.950Z,56.80
2018-04-11T11:51:59.442Z,56.75
2018-04-11T11:54:26.970Z,57.29
2018-04-11T11:56:54.472Z,56.97
2018-04-11T11:59:21.945Z,56.71
2018-04-11T12:01:49.438Z,56.61
2018-04-11T12:04:16.913Z,56.98
2018-04-11T12:06:44.402Z,56.96
2018-04-11T12:09:11.951Z,57.15
2018-04-11T12:11:39.492Z,57.19
2018-04-11T12:14:07.020Z,57.02
2018-04-11T12:16:34.493Z,56.75
2018-04-11T12:19:01.961Z,56.27
2018-04-11T12:21:29.506Z,55.68
2018-04-11T12:23:57.102Z,55.36
2018-04-11T12:26:24.613Z,55.33
2018-04-11T12:28:52.115Z,55.78
2018-04-11T12:31:19.585Z,55.72
2018-04-11T12:33:47.103Z,55.36
2018-04-11T12:36:14.599Z,56.06
2018-04-11T12:38:42.066Z,56.25
2018-04-11T12:41:09.611Z,55.92
2018-04-11T12:43:37.135Z,54.34
2018-04-11T12:46:04.628Z,54.39
2018-04-11T12:48:32.141Z,55.84
2018-04-11T12:50:59.600Z,55.15
2018-04-11T12:53:27.077Z,55.33
2018-04-11T12:55:54.589Z,55.72
2018-04-11T12:58:22.088Z,55.90
2018-04-11T13:00:49.552Z,56.55
2018-04-11T13:03:17.044Z,56.52
2018-04-11T13:05:44.539Z,56.16
2018-04-11T13:08:12.035Z,55.96
2018-04-11T13:10:39.580Z,55.59
2018-04-11T13:13:07.137Z,56.06
2018-04-11T13:15:34.661Z,56.33
2018-04-11T13:18:02.122Z,55.74
2018-04-11T13:20:29.751Z,54.81
2018-04-11T13:22:57.260Z,53.65
2018-04-11T13:25:24.762Z,54.36
2018-04-11T13:27:52.289Z,54.57
2018-04-11T13:30:19.781Z,55.30
2018-04-11T13:32:47.245Z,55.74
2018-04-11T13:35:14.750Z,55.67
2018-04-11T13:37:42.234Z,55.59
2018-04-11T13:40:09.809Z,55.72
2018-04-11T13:42:37.369Z,55.76
2018-04-11T13:45:04.888Z,56.30
2018-04-11T13:47:32.369Z,56.62
2018-04-11T13:49:59.873Z,56.78
2018-04-11T13:52:27.336Z,56.90
2018-04-11T13:54:54.848Z,56.78
2018-04-11T13:57:22.341Z,56.49
2018-04-11T13:59:49.856Z,55.72
2018-04-11T14:02:17.333Z,55.50
2018-04-11T14:04:44.796Z,55.79
2018-04-11T14:07:12.351Z,56.07
2018-04-11T14:09:39.819Z,56.56
2018-04-11T14:12:07.296Z,56.86
2018-04-11T14:14:34.770Z,57.38
2018-04-11T14:17:02.245Z,57.87
2018-04-11T14:19:29.741Z,57.41
2018-04-11T14:21:57.204Z,57.08
2018-04-11T14:24:24.691Z,56.53
2018-04-11T14:26:52.157Z,56.33
2018-04-11T14:29:19.633Z,56.57
2018-04-11T14:31:47.124Z,56.47
2018-04-11T14:34:14.606Z,55.69
2018-04-11T14:36:42.081Z,56.28
2018-04-11T14:39:09.552Z,56.63
2018-04-11T14:41:37.065Z,56.79
2018-04-11T14:44:04.530Z,56.91
2018-04-11T14:46:32.028Z,56.90
2018-04-11T14:48:59.574Z,56.09
2018-04-11T14:51:27.085Z,56.21
2018-04-11T14:53:54.614Z,56.87
2018-04-11T14:56:22.165Z,57.19
2018-04-11T14:58:49.664Z,57.06
2018-04-11T15:01:17.170Z,56.91
2018-04-11T15:03:44.786Z,56.27
2018-04-11T15:06:12.308Z,56.21
2018-04-11T15:08:39.794Z,56.27
2018-04-11T15:11:07.258Z,55.96
2018-04-11T15:13:34.753Z,54.87
2018-04-11T15:16:02.229Z,54.49
2018-04-11T15:18:29.791Z,54.33
2018-04-11T15:20:57.301Z,55.17
2018-04-11T15:23:24.780Z,56.21
2018-04-11T15:25:52.364Z,56.55
2018-04-11T15:28:19.857Z,56.59
2018-04-11T15:30:47.317Z,56.44
2018-04-11T15:33:14.849Z,55.96
2018-04-11T15:35:42.408Z,56.25
2018-04-11T15:38:09.889Z,56.62
2018-04-11T15:40:37.359Z,56.71
2018-04-11T15:43:04.845Z,54.97
2018-04-11T15:45:32.340Z,53.41
2018-04-11T15:47:59.820Z,52.24
2018-04-11T15:50:28.532Z,50.97
2018-04-11T15:52:56.079Z,49.43
2018-04-11T15:55:23.648Z,48.14
2018-04-11T15:57:51.134Z,47.16
2018-04-11T16:00:18.607Z,46.82
2018-04-11T16:02:46.069Z,47.62
2018-04-11T16:05:13.580Z,48.94
2018-04-11T16:07:41.136Z,49.71
2018-04-11T16:10:08.680Z,50.86
2018-04-11T16:12:36.306Z,53.01
2018-04-11T16:15:03.785Z,55.32
2018-04-11T16:17:31.271Z,56.76
2018-04-11T16:19:58.780Z,57.09
2018-04-11T16:22:26.281Z,56.92
2018-04-11T16:24:53.795Z,57.68
2018-04-11T16:27:21.273Z,57.13
2018-04-11T16:29:48.839Z,57.85
2018-04-11T16:32:16.369Z,58.78
2018-04-11T16:34:43.840Z,58.95
2018-04-11T16:37:11.304Z,58.64
2018-04-11T16:39:38.881Z,59.57
2018-04-11T16:42:06.370Z,60.24
2018-04-11T16:44:33.842Z,60.43
2018-04-11T16:47:01.341Z,59.75
2018-04-11T16:49:28.929Z,59.89
2018-04-11T16:51:56.409Z,61.01
2018-04-11T16:54:23.911Z,62.12
2018-04-11T16:56:51.504Z,62.61
2018-04-11T16:59:19.007Z,62.90
2018-04-11T17:01:46.525Z,63.50
2018-04-11T17:04:14.049Z,64.00
2018-04-11T17:06:41.600Z,64.35
2018-04-11T17:09:09.162Z,64.92
2018-04-11T17:11:36.626Z,65.27
2018-04-11T17:14:04.089Z,65.65
2018-04-11T17:16:31.581Z,65.53
2018-04-11T17:18:59.052Z,65.49
2018-04-11T17:21:38.336Z,65.44
2018-04-11T17:24:17.640Z,65.42
2018-04-11T17:26:56.980Z,65.53
2018-04-11T17:29:36.457Z,65.86
2018-04-11T17:32:03.954Z,66.34
2018-04-11T17:34:31.449Z,66.73
2018-04-11T17:36:58.950Z,66.91
2018-04-11T17:39:26.465Z,66.91
2018-04-11T17:41:54.034Z,66.84
2018-04-11T17:44:21.496Z,66.75
2018-04-11T17:46:48.993Z,66.77
2018-04-11T17:49:16.465Z,66.99
2018-04-11T17:51:43.930Z,67.17
2018-04-11T17:54:11.441Z,67.66
2018-04-11T17:56:38.910Z,67.87
2018-04-11T17:59:06.383Z,68.13
2018-04-11T18:01:33.990Z,68.26
2018-04-11T18:04:01.459Z,68.27
2018-04-11T18:06:28.919Z,68.48
2018-04-11T18:08:56.495Z,68.67
2018-04-11T18:11:23.972Z,68.94
2018-04-11T18:13:51.439Z,69.16
2018-04-11T18:16:18.965Z,69.31
2018-04-11T18:18:46.446Z,69.33
2018-04-11T18:21:13.907Z,69.37
2018-04-11T18:23:41.430Z,69.62
2018-04-11T18:26:08.899Z,69.81
2018-04-11T18:28:36.441Z,69.80
2018-04-11T18:31:03.946Z,69.89
2018-04-11T18:33:31.430Z,70.03
2018-04-11T18:35:58.900Z,70.12
2018-04-11T18:38:26.421Z,70.32
2018-04-11T18:40:53.928Z,70.53
2018-04-11T18:43:21.418Z,70.75
2018-04-11T18:45:48.949Z,70.97
2018-04-11T18:48:16.419Z,70.92
2018-04-11T18:50:43.906Z,70.94
2018-04-11T18:53:11.419Z,70.98
2018-04-11T18:55:38.985Z,71.02
2018-04-11T18:58:06.470Z,71.25
2018-04-11T19:00:34.065Z,71.25
2018-04-11T19:03:01.469Z,71.33
2018-04-11T19:05:29.013Z,71.30
2018-04-11T19:07:56.491Z,71.44
2018-04-11T19:10:24.002Z,71.62
2018-04-11T19:12:51.506Z,71.75
2018-04-11T19:15:18.986Z,71.79
2018-04-11T19:17:46.466Z,71.87
2018-04-11T19:20:13.941Z,72.00
2018-04-11T19:22:41.436Z,72.11
2018-04-11T19:25:09.058Z,72.21
2018-04-11T19:27:36.520Z,72.30
2018-04-11T19:30:03.992Z,72.37
2018-04-11T19:32:31.488Z,72.40
2018-04-11T19:34:58.995Z,72.45
2018-04-11T19:37:26.461Z,72.52
2018-04-11T19:39:53.930Z,72.56
2018-04-11T19:42:21.434Z,72.65
2018-04-11T19:44:48.890Z,72.68
2018-04-11T19:47:16.362Z,72.73
2018-04-11T19:49:43.840Z,72.91
2018-04-11T19:54:45.303Z,72.92
2018-04-11T19:57:12.885Z,73.07
2018-04-11T19:59:40.350Z,73.14
2018-04-11T20:02:07.848Z,73.18
2018-04-11T20:04:35.329Z,73.23
2018-04-11T20:07:02.809Z,73.28
2018-04-11T20:09:30.368Z,73.43
2018-04-11T20:11:57.928Z,73.50
2018-04-11T20:14:25.403Z,73.66
2018-04-11T20:16:52.894Z,73.80
2018-04-11T20:19:20.384Z,73.82
2018-04-11T20:21:47.861Z,73.97
2018-04-11T20:24:15.348Z,74.10
2018-04-11T20:26:42.870Z,74.16
2018-04-11T20:29:10.321Z,74.26
2018-04-11T20:31:37.782Z,74.28
2018-04-11T20:34:05.274Z,74.27
2018-04-11T20:36:32.748Z,74.34
2018-04-11T20:39:00.266Z,74.41
2018-04-11T20:41:27.760Z,74.51
2018-04-11T20:43:55.229Z,74.60
2018-04-11T20:46:22.688Z,74.63
2018-04-11T20:48:50.184Z,74.68
2018-04-11T20:51:17.646Z,74.63
2018-04-11T20:53:45.125Z,74.61
2018-04-11T20:56:12.671Z,74.57
2018-04-11T20:58:40.136Z,74.61
2018-04-11T21:01:07.609Z,74.67
2018-04-11T21:03:35.104Z,74.72
2018-04-11T21:06:02.585Z,74.53
2018-04-11T21:08:30.169Z,74.47
2018-04-11T21:10:57.764Z,74.42
2018-04-11T21:13:25.237Z,74.50
2018-04-11T21:15:52.702Z,74.48
2018-04-11T21:18:20.266Z,74.58
2018-04-11T21:20:47.701Z,74.61
2018-04-11T21:23:15.175Z,74.61
2018-04-11T21:25:42.718Z,74.64
2018-04-11T21:28:10.174Z,74.67
2018-04-11T21:30:37.657Z,74.72
2018-04-11T21:33:05.149Z,74.72
2018-04-11T21:35:32.625Z,74.79
2018-04-11T21:38:00.101Z,74.87
2018-04-11T21:40:27.603Z,75.04
2018-04-11T21:42:55.092Z,75.04
2018-04-11T21:45:22.560Z,75.06
2018-04-11T21:47:50.185Z,75.12
2018-04-11T21:50:17.757Z,75.20
2018-04-11T21:52:45.334Z,75.27
2018-04-11T21:55:12.884Z,75.28
2018-04-11T21:57:40.384Z,75.36
2018-04-11T22:00:07.860Z,75.44
2018-04-11T22:02:35.355Z,75.50
2018-04-11T22:05:02.822Z,75.35
2018-04-11T22:07:30.314Z,75.36
2018-04-11T22:09:57.854Z,75.43
2018-04-11T22:12:25.324Z,75.71
2018-04-11T22:14:52.834Z,75.80
2018-04-11T22:17:20.338Z,75.96
2018-04-11T22:19:47.860Z,76.12
2018-04-11T22:22:15.353Z,76.18
2018-04-11T22:24:42.838Z,76.32
2018-04-11T22:27:10.313Z,76.35
2018-04-11T22:29:37.886Z,76.40
2018-04-11T22:32:05.442Z,76.56
2018-04-11T22:34:32.908Z,76.65
2018-04-11T22:37:00.408Z,76.66
2018-04-11T22:39:27.886Z,76.76
2018-04-11T22:41:55.361Z,76.80
2018-04-11T22:44:22.856Z,76.88
2018-04-11T22:46:50.329Z,76.96
2018-04-11T22:49:17.844Z,76.94
2018-04-11T22:51:45.332Z,77.09
2018-04-11T22:54:12.797Z,77.10
2018-04-11T22:56:40.261Z,77.20
2018-04-11T22:59:07.856Z,77.24
2018-04-11T23:01:35.348Z,77.25
2018-04-11T23:04:02.949Z,77.28
2018-04-11T23:06:30.477Z,77.34
2018-04-11T23:08:57.944Z,77.28
2018-04-11T23:11:25.413Z,77.27
2018-04-11T23:13:52.992Z,77.28
2018-04-11T23:16:20.484Z,77.41
2018-04-11T23:18:47.967Z,77.48
2018-04-11T23:21:15.428Z,77.62
2018-04-11T23:23:42.903Z,77.64
2018-04-11T23:26:10.388Z,77.73
2018-04-11T23:28:37.884Z,77.75
2018-04-11T23:31:05.384Z,77.76
2018-04-11T23:33:32.844Z,77.83
2018-04-11T23:36:00.352Z,77.81
2018-04-11T23:38:27.852Z,77.87
2018-04-11T23:40:55.327Z,77.85
2018-04-11T23:43:22.794Z,77.84
2018-04-11T23:45:50.386Z,78.04
2018-04-11T23:48:17.853Z,78.12
2018-04-11T23:50:45.321Z,78.12
2018-04-11T23:53:12.869Z,78.09
2018-04-11T23:55:40.353Z,78.06
2018-04-11T23:58:07.922Z,78.23
